createdAt,value
2022-10-22T00:00:07.362Z,14.00
2022-10-22T00:02:34.282Z,13.90
2022-10-22T00:05:01.109Z,13.90
2022-10-22T00:07:27.928Z,13.90
2022-10-22T00:09:54.760Z,14.00
2022-10-22T00:12:22.002Z,14.00
2022-10-22T00:14:49.512Z,13.90
2022-10-22T00:17:16.439Z,14.00
2022-10-22T00:19:43.287Z,14.10
2022-10-22T00:22:11.417Z,14.10
2022-10-22T00:24:39.594Z,14.10
2022-10-22T00:27:08.750Z,14.10
2022-10-22T00:29:35.637Z,14.10
2022-10-22T00:32:03.153Z,14.10
2022-10-22T00:34:29.967Z,14.10
2022-10-22T00:36:56.805Z,14.10
2022-10-22T00:39:25.613Z,14.10
2022-10-22T00:41:55.537Z,14.10
2022-10-22T00:45:02.927Z,14.00
2022-10-22T00:47:37.924Z,14.00
2022-10-22T00:50:09.959Z,14.00
2022-10-22T00:52:37.310Z,14.00
2022-10-22T00:55:05.196Z,14.00
2022-10-22T00:57:32.456Z,14.00
2022-10-22T00:59:59.283Z,14.00
2022-10-22T01:02:26.305Z,14.00
2022-10-22T01:04:53.085Z,14.00
2022-10-22T01:07:22.759Z,14.10
2022-10-22T01:10:24.529Z,14.10
2022-10-22T01:13:24.538Z,14.10
2022-10-22T01:16:22.255Z,14.10
2022-10-22T01:19:08.408Z,14.20
2022-10-22T01:21:44.419Z,14.20
2022-10-22T01:24:31.792Z,14.20
2022-10-22T01:27:43.965Z,14.20
2022-10-22T01:30:14.330Z,14.10
2022-10-22T01:32:50.303Z,14.10
2022-10-22T01:35:23.748Z,14.10
2022-10-22T01:37:57.353Z,14.10
2022-10-22T01:40:25.046Z,14.10
2022-10-22T01:43:07.982Z,14.10
2022-10-22T01:45:52.181Z,14.00
2022-10-22T01:48:51.731Z,14.00
2022-10-22T01:51:29.541Z,14.00
2022-10-22T01:54:14.225Z,14.00
2022-10-22T01:57:02.497Z,14.00
2022-10-22T01:59:54.768Z,14.00
2022-10-22T02:02:29.781Z,14.10
2022-10-22T02:05:08.396Z,14.00
2022-10-22T02:07:47.367Z,14.00
2022-10-22T02:10:15.910Z,14.10
2022-10-22T02:12:45.072Z,14.10
2022-10-22T02:15:14.792Z,14.10
2022-10-22T02:17:45.334Z,14.00
2022-10-22T02:20:33.477Z,14.00
2022-10-22T02:23:00.751Z,14.00
2022-10-22T02:25:37.112Z,14.00
2022-10-22T02:28:16.968Z,14.00
2022-10-22T02:30:51.360Z,14.00
2022-10-22T02:33:45.720Z,14.00
2022-10-22T02:36:14.557Z,13.90
2022-10-22T02:38:42.712Z,13.80
2022-10-22T02:41:09.981Z,13.90
2022-10-22T02:43:48.768Z,13.90
2022-10-22T02:46:15.588Z,13.90
2022-10-22T02:48:42.373Z,14.00
2022-10-22T02:51:09.139Z,13.90
2022-10-22T02:53:35.958Z,13.90
2022-10-22T02:56:03.165Z,13.90
2022-10-22T02:58:29.944Z,13.80
2022-10-22T03:00:56.742Z,13.90
2022-10-22T03:03:23.574Z,13.90
2022-10-22T03:05:53.502Z,13.90
2022-10-22T03:08:20.278Z,13.90
2022-10-22T03:10:47.072Z,13.90
2022-10-22T03:13:14.333Z,13.80
2022-10-22T03:15:41.126Z,13.80
2022-10-22T03:18:08.013Z,13.90
2022-10-22T03:20:35.350Z,13.80
2022-10-22T03:23:03.348Z,14.00
2022-10-22T03:25:34.379Z,14.00
2022-10-22T03:28:05.689Z,14.00
2022-10-22T03:30:32.510Z,14.00
2022-10-22T03:32:59.681Z,14.10
2022-10-22T03:35:26.646Z,14.10
2022-10-22T03:37:54.432Z,14.10
2022-10-22T03:40:21.540Z,14.00
2022-10-22T03:42:48.415Z,14.00
2022-10-22T03:45:15.269Z,13.90
2022-10-22T03:47:42.452Z,14.00
2022-10-22T03:50:10.155Z,14.00
2022-10-22T03:52:39.589Z,13.90
2022-10-22T03:55:07.274Z,14.00
2022-10-22T03:57:34.373Z,14.00
2022-10-22T04:00:01.221Z,14.00
2022-10-22T04:02:28.133Z,14.00
2022-10-22T04:04:54.918Z,14.00
2022-10-22T04:07:21.789Z,13.90
2022-10-22T04:09:48.569Z,13.90
2022-10-22T04:12:15.412Z,13.90
2022-10-22T04:14:42.187Z,13.90
2022-10-22T04:17:08.965Z,13.90
2022-10-22T04:19:35.840Z,13.80
2022-10-22T04:22:02.627Z,13.80
2022-10-22T04:24:31.894Z,13.80
2022-10-22T04:26:59.031Z,13.80
2022-10-22T04:29:27.060Z,13.80
2022-10-22T04:31:53.997Z,13.80
2022-10-22T04:34:20.912Z,13.80
2022-10-22T04:36:47.673Z,13.80
2022-10-22T04:39:15.194Z,13.80
2022-10-22T04:41:41.997Z,13.70
2022-10-22T04:44:12.271Z,13.70
2022-10-22T04:46:42.925Z,13.60
2022-10-22T04:49:09.727Z,13.60
2022-10-22T04:51:36.531Z,13.40
2022-10-22T04:54:04.592Z,13.50
2022-10-22T04:56:32.164Z,13.40
2022-10-22T04:59:06.117Z,13.30
2022-10-22T05:01:43.179Z,13.30
2022-10-22T05:04:16.692Z,13.30
2022-10-22T05:06:44.305Z,13.30
2022-10-22T05:09:19.769Z,13.30
2022-10-22T05:11:50.044Z,13.20
2022-10-22T05:14:23.589Z,13.20
2022-10-22T05:16:51.721Z,13.10
2022-10-22T05:19:30.825Z,13.10
2022-10-22T05:22:01.605Z,13.10
2022-10-22T05:24:30.090Z,13.10
2022-10-22T05:26:58.918Z,13.10
2022-10-22T05:29:26.612Z,12.90
2022-10-22T05:31:53.673Z,13.00
2022-10-22T05:34:20.472Z,13.00
2022-10-22T05:36:47.282Z,13.00
2022-10-22T05:39:14.099Z,13.00
2022-10-22T05:41:41.185Z,12.90
2022-10-22T05:44:07.973Z,13.00
2022-10-22T05:46:36.303Z,12.90
2022-10-22T05:49:06.822Z,12.90
2022-10-22T05:51:36.474Z,13.00
2022-10-22T05:54:06.411Z,12.90
2022-10-22T05:56:34.988Z,12.90
2022-10-22T06:01:37.773Z,12.80
2022-10-22T06:04:10.721Z,12.80
2022-10-22T06:06:43.214Z,13.00
2022-10-22T06:09:26.417Z,12.90
2022-10-22T06:11:53.465Z,12.90
2022-10-22T06:14:21.377Z,12.90
2022-10-22T06:16:49.058Z,12.90
2022-10-22T06:19:18.200Z,13.00
2022-10-22T06:21:45.711Z,12.90
2022-10-22T06:24:12.977Z,12.90
2022-10-22T06:26:41.016Z,13.00
2022-10-22T06:29:08.477Z,13.00
2022-10-22T06:31:39.258Z,13.00
2022-10-22T06:34:11.139Z,13.00
2022-10-22T06:36:38.507Z,13.00
2022-10-22T06:39:05.861Z,13.00
2022-10-22T06:41:32.637Z,12.90
2022-10-22T06:44:00.008Z,12.90
2022-10-22T06:46:27.278Z,12.90
2022-10-22T06:48:57.895Z,13.00
2022-10-22T06:51:26.177Z,12.90
2022-10-22T06:53:55.032Z,12.90
2022-10-22T06:56:26.425Z,12.90
2022-10-22T06:58:56.082Z,12.90
2022-10-22T07:01:27.872Z,12.90
2022-10-22T07:03:54.836Z,12.80
2022-10-22T07:06:23.968Z,12.90
2022-10-22T07:08:51.364Z,12.80
2022-10-22T07:11:23.561Z,12.90
2022-10-22T07:13:50.619Z,13.00
2022-10-22T07:16:18.474Z,13.00
2022-10-22T07:18:46.345Z,13.10
2022-10-22T07:21:16.147Z,13.10
2022-10-22T07:23:43.570Z,13.20
2022-10-22T07:26:14.582Z,13.20
2022-10-22T07:28:42.164Z,13.30
2022-10-22T07:31:11.677Z,13.30
2022-10-22T07:33:39.249Z,13.30
2022-10-22T07:36:09.248Z,13.40
2022-10-22T07:38:36.817Z,13.40
2022-10-22T07:41:04.148Z,13.50
2022-10-22T07:43:31.121Z,13.50
2022-10-22T07:45:59.524Z,13.60
2022-10-22T07:48:26.475Z,13.60
2022-10-22T07:50:53.273Z,13.70
2022-10-22T07:53:21.309Z,13.80
2022-10-22T07:55:50.340Z,13.80
2022-10-22T07:58:18.409Z,13.80
2022-10-22T08:00:45.654Z,13.90
2022-10-22T08:03:14.142Z,14.10
2022-10-22T08:05:43.643Z,14.00
2022-10-22T08:08:13.738Z,14.10
2022-10-22T08:10:41.005Z,14.20
2022-10-22T08:13:08.409Z,14.20
2022-10-22T08:15:36.112Z,14.00
2022-10-22T08:18:02.990Z,14.10
2022-10-22T08:20:29.817Z,14.10
2022-10-22T08:22:56.651Z,14.30
2022-10-22T08:25:23.576Z,14.30
2022-10-22T08:27:50.392Z,14.50
2022-10-22T08:30:17.592Z,14.40
2022-10-22T08:32:44.466Z,14.30
2022-10-22T08:35:14.177Z,14.30
2022-10-22T08:37:44.007Z,14.40
2022-10-22T08:40:23.930Z,14.30
2022-10-22T08:43:37.134Z,14.30
2022-10-22T08:46:16.765Z,14.40
2022-10-22T08:48:52.269Z,14.40
2022-10-22T08:51:26.608Z,14.50
2022-10-22T08:54:16.938Z,14.60
2022-10-22T08:56:49.849Z,14.70
2022-10-22T08:59:23.897Z,14.70
2022-10-22T09:01:53.973Z,14.80
2022-10-22T09:04:37.836Z,14.90
2022-10-22T09:07:04.789Z,15.00
2022-10-22T09:09:42.850Z,15.10
2022-10-22T09:12:19.326Z,15.20
2022-10-22T09:14:47.305Z,15.30
2022-10-22T09:17:33.761Z,15.30
2022-10-22T09:20:16.689Z,15.30
2022-10-22T09:23:15.646Z,15.30
2022-10-22T09:25:43.518Z,15.40
2022-10-22T09:28:10.417Z,15.40
2022-10-22T09:30:39.217Z,15.40
2022-10-22T09:33:28.023Z,15.40
2022-10-22T09:36:06.882Z,15.50
2022-10-22T09:38:40.580Z,15.50
2022-10-22T09:41:09.040Z,15.40
2022-10-22T09:43:36.396Z,15.40
2022-10-22T09:46:14.090Z,15.60
2022-10-22T09:49:12.067Z,15.80
2022-10-22T09:52:00.071Z,16.10
2022-10-22T09:54:42.523Z,16.30
2022-10-22T09:57:22.374Z,16.40
2022-10-22T09:59:51.368Z,16.30
2022-10-22T10:02:37.426Z,16.20
2022-10-22T10:05:06.572Z,16.30
2022-10-22T10:07:35.752Z,16.30
2022-10-22T10:10:17.052Z,16.40
2022-10-22T10:12:55.819Z,16.30
2022-10-22T10:15:47.824Z,16.20
2022-10-22T10:18:43.129Z,16.10
2022-10-22T10:21:32.057Z,16.00
2022-10-22T10:24:20.200Z,16.10
2022-10-22T10:26:59.025Z,16.00
2022-10-22T10:29:59.180Z,16.00
2022-10-22T10:32:53.884Z,15.90
2022-10-22T10:35:27.558Z,16.00
2022-10-22T10:38:42.476Z,16.00
2022-10-22T10:41:29.108Z,15.80
2022-10-22T10:44:28.521Z,15.90
2022-10-22T10:47:25.625Z,15.70
2022-10-22T10:50:01.621Z,15.70
2022-10-22T10:53:02.483Z,15.70
2022-10-22T10:55:41.309Z,15.90
2022-10-22T10:58:46.186Z,16.00
2022-10-22T11:01:58.114Z,16.00
2022-10-22T11:04:55.244Z,16.40
2022-10-22T11:07:34.746Z,16.60
2022-10-22T11:10:32.406Z,16.80
2022-10-22T11:13:29.555Z,17.00
2022-10-22T11:16:03.633Z,17.20
2022-10-22T11:18:40.743Z,17.50
2022-10-22T11:21:11.409Z,17.90
2022-10-22T11:24:11.213Z,18.30
2022-10-22T11:26:49.061Z,18.50
2022-10-22T11:29:22.956Z,18.30
2022-10-22T11:31:52.085Z,18.20
2022-10-22T11:34:43.713Z,18.30
2022-10-22T11:37:13.670Z,18.30
2022-10-22T11:39:54.136Z,18.30
2022-10-22T11:42:39.091Z,18.30
2022-10-22T11:45:14.099Z,18.30
2022-10-22T11:48:16.543Z,18.20
2022-10-22T11:51:02.363Z,17.90
2022-10-22T11:53:37.234Z,17.80
2022-10-22T11:56:06.971Z,17.50
2022-10-22T11:58:47.701Z,17.20
2022-10-22T12:01:29.723Z,17.20
2022-10-22T12:03:59.545Z,17.20
2022-10-22T12:06:28.770Z,17.20
2022-10-22T12:09:04.782Z,17.60
2022-10-22T12:11:47.662Z,18.20
2022-10-22T12:14:26.584Z,18.50
2022-10-22T12:16:57.968Z,18.90
2022-10-22T12:19:44.959Z,20.20
2022-10-22T12:22:24.311Z,21.50
2022-10-22T12:24:55.457Z,21.60
2022-10-22T12:27:26.054Z,23.50
2022-10-22T12:29:59.526Z,25.30
2022-10-22T12:32:39.784Z,26.50
2022-10-22T12:35:15.246Z,27.00
2022-10-22T12:37:42.489Z,28.60
2022-10-22T12:40:28.707Z,29.90
2022-10-22T12:43:03.035Z,28.80
2022-10-22T12:45:33.465Z,30.30
2022-10-22T12:48:07.210Z,27.60
2022-10-22T12:50:41.050Z,27.50
2022-10-22T12:53:35.791Z,27.30
2022-10-22T12:56:06.685Z,26.90
2022-10-22T12:58:45.950Z,26.40
2022-10-22T13:01:16.354Z,26.90
2022-10-22T13:03:49.792Z,26.30
2022-10-22T13:06:20.472Z,25.20
2022-10-22T13:09:00.163Z,23.80
2022-10-22T13:11:53.432Z,23.10
2022-10-22T13:14:34.413Z,25.00
2022-10-22T13:17:13.335Z,26.30
2022-10-22T13:19:49.755Z,26.10
2022-10-22T13:22:36.631Z,26.50
2022-10-22T13:25:19.426Z,26.40
2022-10-22T13:27:50.318Z,27.20
2022-10-22T13:30:34.067Z,28.00
2022-10-22T13:33:23.359Z,29.00
2022-10-22T13:35:50.203Z,27.30
2022-10-22T13:38:20.289Z,27.60
2022-10-22T13:40:47.478Z,29.50
2022-10-22T13:43:15.050Z,29.00
2022-10-22T13:45:42.132Z,29.50
2022-10-22T13:48:15.463Z,30.10
2022-10-22T13:50:42.578Z,30.60
2022-10-22T13:53:23.390Z,30.90
2022-10-22T13:55:50.481Z,30.60
2022-10-22T13:58:21.062Z,29.00
2022-10-22T14:00:52.302Z,27.50
2022-10-22T14:03:21.889Z,26.00
2022-10-22T14:05:49.526Z,26.10
2022-10-22T14:08:20.213Z,27.50
2022-10-22T14:10:47.458Z,27.50
2022-10-22T14:13:16.858Z,26.80
2022-10-22T14:15:46.965Z,27.60
2022-10-22T14:18:25.337Z,28.60
2022-10-22T14:20:58.473Z,29.10
2022-10-22T14:23:30.167Z,27.40
2022-10-22T14:25:58.821Z,25.70
2022-10-22T14:28:31.374Z,24.40
2022-10-22T14:30:58.664Z,23.90
2022-10-22T14:33:32.525Z,24.90
2022-10-22T14:36:02.979Z,26.40
2022-10-22T14:38:29.899Z,27.30
2022-10-22T14:40:57.940Z,28.30
2022-10-22T14:43:29.276Z,29.50
2022-10-22T14:45:56.137Z,30.20
2022-10-22T14:48:23.443Z,30.30
2022-10-22T14:50:50.711Z,30.50
2022-10-22T14:53:17.695Z,30.60
2022-10-22T14:55:48.980Z,29.90
2022-10-22T14:58:16.023Z,28.40
2022-10-22T15:00:43.571Z,27.20
2022-10-22T15:03:11.694Z,26.00
2022-10-22T15:05:45.366Z,24.80
2022-10-22T15:08:14.317Z,23.50
2022-10-22T15:10:41.689Z,22.70
2022-10-22T15:13:08.722Z,21.70
2022-10-22T15:15:39.490Z,20.90
2022-10-22T15:18:06.940Z,20.30
2022-10-22T15:20:33.814Z,19.70
2022-10-22T15:23:00.751Z,19.20
2022-10-22T15:25:28.593Z,18.90
2022-10-22T15:28:00.575Z,18.60
2022-10-22T15:30:31.962Z,18.40
2022-10-22T15:32:58.765Z,18.20
2022-10-22T15:35:28.532Z,18.00
2022-10-22T15:37:56.461Z,17.80
2022-10-22T15:40:23.225Z,17.70
2022-10-22T15:42:50.021Z,17.50
2022-10-22T15:45:16.967Z,17.40
2022-10-22T15:47:49.804Z,17.20
2022-10-22T15:50:17.207Z,17.20
2022-10-22T15:52:44.027Z,17.10
2022-10-22T15:57:43.289Z,16.70
2022-10-22T16:00:11.241Z,16.60
2022-10-22T16:02:38.028Z,16.60
2022-10-22T16:05:05.304Z,16.40
2022-10-22T16:07:32.082Z,16.20
2022-10-22T16:10:02.522Z,16.10
2022-10-22T16:12:29.431Z,16.00
2022-10-22T16:14:56.217Z,15.90
2022-10-22T16:17:23.456Z,15.70
2022-10-22T16:19:50.261Z,15.60
2022-10-22T16:22:17.088Z,15.50
2022-10-22T16:24:43.961Z,15.30
2022-10-22T16:27:10.893Z,15.20
2022-10-22T16:29:41.968Z,15.10
2022-10-22T16:32:08.926Z,14.90
2022-10-22T16:34:35.687Z,14.80
2022-10-22T16:37:02.568Z,14.70
2022-10-22T16:39:29.542Z,14.60
2022-10-22T16:41:56.373Z,14.60
2022-10-22T16:44:23.716Z,14.40
2022-10-22T16:46:50.508Z,14.30
2022-10-22T16:49:17.301Z,14.10
2022-10-22T16:51:44.105Z,14.00
2022-10-22T16:54:14.017Z,13.80
2022-10-22T16:56:41.073Z,13.70
2022-10-22T16:59:07.988Z,13.70
2022-10-22T17:01:38.125Z,13.70
2022-10-22T17:04:07.338Z,13.60
2022-10-22T17:06:34.308Z,13.60
2022-10-22T17:09:01.174Z,13.60
2022-10-22T17:11:30.179Z,13.50
2022-10-22T17:13:57.092Z,13.50
2022-10-22T17:16:24.934Z,13.50
2022-10-22T17:18:54.138Z,13.50
2022-10-22T17:21:22.381Z,13.60
2022-10-22T17:23:52.144Z,13.50
2022-10-22T17:26:22.745Z,13.50
2022-10-22T17:28:50.059Z,13.40
2022-10-22T17:31:24.416Z,13.30
2022-10-22T17:33:53.889Z,13.30
2022-10-22T17:36:22.941Z,13.20
2022-10-22T17:38:55.592Z,13.20
2022-10-22T17:41:26.869Z,13.20
2022-10-22T17:43:55.719Z,13.20
2022-10-22T17:46:28.733Z,13.10
2022-10-22T17:49:01.748Z,12.90
2022-10-22T17:51:30.487Z,12.80
2022-10-22T17:53:57.756Z,12.70
2022-10-22T17:56:27.964Z,12.70
2022-10-22T17:58:56.111Z,12.70
2022-10-22T18:01:29.466Z,12.70
2022-10-22T18:04:05.468Z,12.60
2022-10-22T18:06:33.070Z,12.50
2022-10-22T18:09:00.117Z,12.60
2022-10-22T18:11:28.522Z,12.60
2022-10-22T18:13:57.098Z,12.60
2022-10-22T18:16:25.458Z,12.60
2022-10-22T18:18:56.002Z,12.60
2022-10-22T18:21:26.843Z,12.40
2022-10-22T18:23:54.677Z,12.40
2022-10-22T18:26:25.823Z,12.30
2022-10-22T18:28:54.431Z,12.20
2022-10-22T18:31:27.817Z,12.20
2022-10-22T18:33:55.276Z,12.10
2022-10-22T18:36:25.433Z,12.10
2022-10-22T18:38:58.540Z,12.10
2022-10-22T18:41:27.212Z,12.00
2022-10-22T18:43:57.290Z,12.00
2022-10-22T18:46:25.380Z,12.00
2022-10-22T18:48:57.718Z,12.20
2022-10-22T18:51:30.483Z,12.10
2022-10-22T18:54:11.359Z,12.00
2022-10-22T18:56:44.809Z,12.00
2022-10-22T18:59:30.452Z,11.90
2022-10-22T19:02:00.468Z,11.90
2022-10-22T19:04:33.062Z,11.90
2022-10-22T19:06:59.939Z,11.90
2022-10-22T19:09:26.853Z,11.90
2022-10-22T19:11:53.991Z,12.00
2022-10-22T19:14:22.075Z,12.00
2022-10-22T19:16:49.918Z,12.10
2022-10-22T19:19:21.726Z,12.10
2022-10-22T19:21:49.422Z,12.20
2022-10-22T19:24:19.184Z,12.10
2022-10-22T19:26:47.826Z,12.20
2022-10-22T19:29:18.268Z,12.20
2022-10-22T19:31:46.323Z,12.10
2022-10-22T19:34:14.179Z,12.10
2022-10-22T19:36:41.194Z,12.20
2022-10-22T19:39:09.031Z,12.20
2022-10-22T19:41:35.976Z,12.10
2022-10-22T19:44:03.215Z,12.00
2022-10-22T19:46:32.886Z,11.90
2022-10-22T19:49:02.556Z,11.90
2022-10-22T19:51:31.736Z,11.80
2022-10-22T19:54:01.522Z,11.90
2022-10-22T19:56:29.769Z,11.90
2022-10-22T19:58:57.457Z,12.00
2022-10-22T20:01:24.928Z,12.00
2022-10-22T20:03:52.708Z,12.00
2022-10-22T20:06:20.105Z,11.90
2022-10-22T20:08:47.404Z,11.80
2022-10-22T20:11:24.834Z,11.80
2022-10-22T20:13:52.623Z,11.70
2022-10-22T20:16:24.250Z,11.70
2022-10-22T20:18:52.248Z,11.50
2022-10-22T20:21:20.911Z,11.40
2022-10-22T20:23:51.736Z,11.40
2022-10-22T20:26:19.720Z,11.40
2022-10-22T20:28:48.107Z,11.20
2022-10-22T20:31:19.758Z,11.30
2022-10-22T20:33:47.868Z,11.20
2022-10-22T20:36:20.393Z,11.30
2022-10-22T20:38:48.217Z,11.40
2022-10-22T20:41:24.493Z,11.50
2022-10-22T20:43:52.273Z,11.60
2022-10-22T20:46:29.660Z,11.60
2022-10-22T20:49:07.492Z,11.60
2022-10-22T20:51:36.780Z,11.60
2022-10-22T20:54:05.106Z,11.50
2022-10-22T20:56:32.327Z,11.50
2022-10-22T20:59:07.918Z,11.30
2022-10-22T21:01:46.814Z,11.30
2022-10-22T21:04:13.771Z,11.20
2022-10-22T21:06:42.751Z,11.00
2022-10-22T21:09:13.052Z,10.90
2022-10-22T21:11:41.873Z,10.90
2022-10-22T21:14:11.125Z,10.90
2022-10-22T21:16:42.320Z,10.90
2022-10-22T21:19:09.136Z,11.00
2022-10-22T21:21:35.903Z,11.10
2022-10-22T21:24:02.693Z,11.20
2022-10-22T21:26:29.741Z,11.30
2022-10-22T21:28:56.504Z,11.40
2022-10-22T21:31:26.198Z,11.40
2022-10-22T21:33:54.392Z,11.30
2022-10-22T21:36:23.565Z,11.20
2022-10-22T21:38:54.456Z,11.10
2022-10-22T21:41:24.261Z,11.00
2022-10-22T21:43:52.209Z,10.90
2022-10-22T21:46:22.440Z,10.80
2022-10-22T21:49:02.302Z,10.80
2022-10-22T21:51:32.322Z,10.60
2022-10-22T21:53:59.416Z,10.50
2022-10-22T21:56:29.865Z,10.60
2022-10-22T21:58:56.650Z,10.60
2022-10-22T22:01:23.914Z,10.70
2022-10-22T22:03:52.390Z,10.80
2022-10-22T22:06:22.985Z,10.80
2022-10-22T22:08:52.522Z,10.80
2022-10-22T22:11:24.602Z,10.80
2022-10-22T22:13:53.337Z,10.80
2022-10-22T22:16:28.091Z,10.90
2022-10-22T22:19:00.753Z,11.00
2022-10-22T22:21:28.453Z,11.00
2022-10-22T22:23:56.617Z,11.00
2022-10-22T22:26:29.674Z,11.00
2022-10-22T22:28:58.525Z,11.00
2022-10-22T22:31:32.122Z,11.00
2022-10-22T22:34:04.125Z,11.00
2022-10-22T22:36:37.260Z,11.00
2022-10-22T22:39:06.572Z,11.00
2022-10-22T22:41:34.274Z,11.00
2022-10-22T22:44:01.457Z,11.10
2022-10-22T22:46:28.338Z,11.10
2022-10-22T22:48:55.564Z,11.10
2022-10-22T22:51:22.376Z,11.10
2022-10-22T22:53:49.261Z,11.10
2022-10-22T22:56:27.609Z,11.10
2022-10-22T22:58:55.178Z,11.10
2022-10-22T23:01:29.060Z,11.10
2022-10-22T23:04:08.759Z,11.10
2022-10-22T23:06:37.657Z,11.00
2022-10-22T23:09:07.643Z,11.00
2022-10-22T23:11:34.763Z,11.00
2022-10-22T23:14:04.995Z,10.90
2022-10-22T23:16:36.703Z,10.80
2022-10-22T23:19:04.766Z,10.70
2022-10-22T23:21:35.916Z,10.70
2022-10-22T23:24:08.058Z,10.70
2022-10-22T23:26:38.776Z,10.70
2022-10-22T23:29:15.746Z,10.70
2022-10-22T23:31:44.115Z,10.60
2022-10-22T23:34:15.923Z,10.50
2022-10-22T23:36:43.176Z,10.40
2022-10-22T23:39:13.599Z,10.40
2022-10-22T23:41:40.544Z,10.40
2022-10-22T23:44:08.875Z,10.30
2022-10-22T23:46:35.920Z,10.30
2022-10-22T23:49:02.724Z,10.40
2022-10-22T23:51:29.518Z,10.40
2022-10-22T23:54:03.064Z,10.40
2022-10-22T23:56:30.265Z,10.30
2022-10-22T23:58:58.156Z,10.30
